Time;durP1;ratioP1;P1;durP2;ratioP2;P2;SDS_P1;SDS_P2;PMS_P1;PMS_P2;Temp;Humidity;BMP_temperature;BMP_pressure;BME280_temperature;BME280_humidity;BME280_pressure;Samples;Min_cycle;Max_cycle;Signal;HPM_P1;HPM_P2
2023/12/08 00:02:01;;;;;;;21.60;10.88;;;;;;;;;;5226196;28;20063;-59
2023/12/08 00:04:32;;;;;;;25.15;10.93;;;;;;;;;;5227221;28;20047;-60
2023/12/08 00:07:03;;;;;;;24.38;12.00;;;;;;;;;;5240520;28;20045;-60
2023/12/08 00:09:34;;;;;;;21.13;10.50;;;;;;;;;;5206531;28;20037;-60
2023/12/08 00:12:06;;;;;;;21.55;10.80;;;;;;;;;;5222992;28;20074;-59
2023/12/08 00:14:37;;;;;;;21.80;9.40;;;;;;;;;;5222929;28;20045;-60
2023/12/08 00:17:08;;;;;;;20.17;9.05;;;;;;;;;;5224769;28;20122;-59
2023/12/08 00:19:40;;;;;;;17.60;8.67;;;;;;;;;;5223945;28;20044;-59
2023/12/08 00:22:11;;;;;;;17.60;8.18;;;;;;;;;;5239586;28;20419;-60
2023/12/08 00:24:43;;;;;;;20.08;8.25;;;;;;;;;;5223252;28;20041;-61
2023/12/08 00:27:14;;;;;;;16.45;8.30;;;;;;;;;;5243814;28;20344;-61
2023/12/08 00:29:45;;;;;;;15.57;7.75;;;;;;;;;;5223362;28;20043;-62
2023/12/08 00:32:16;;;;;;;17.02;8.30;;;;;;;;;;5242921;28;20048;-62
2023/12/08 00:34:47;;;;;;;14.80;8.07;;;;;;;;;;5227058;28;20523;-59
2023/12/08 00:37:18;;;;;;;11.75;6.13;;;;;;;;;;5243900;28;20075;-59
2023/12/08 00:39:49;;;;;;;14.70;7.40;;;;;;;;;;5225604;28;20051;-60
2023/12/08 00:42:21;;;;;;;12.95;7.20;;;;;;;;;;5234258;28;20064;-59
2023/12/08 00:44:52;;;;;;;12.73;6.40;;;;;;;;;;5223192;28;20163;-60
2023/12/08 00:47:23;;;;;;;12.57;6.57;;;;;;;;;;5240773;28;20044;-60
2023/12/08 00:49:54;;;;;;;12.68;6.05;;;;;;;;;;5242858;28;20136;-60
2023/12/08 00:52:25;;;;;;;12.07;6.20;;;;;;;;;;5244126;28;20128;-59
2023/12/08 00:54:56;;;;;;;12.75;7.30;;;;;;;;;;5244058;28;20484;-59
2023/12/08 00:57:27;;;;;;;11.00;6.90;;;;;;;;;;5217144;28;20066;-60
2023/12/08 00:59:59;;;;;;;13.05;7.13;;;;;;;;;;5243870;28;20052;-62
2023/12/08 01:02:30;;;;;;;12.75;6.90;;;;;;;;;;5228182;28;20076;-61
2023/12/08 01:05:01;;;;;;;12.70;6.20;;;;;;;;;;5231174;28;20036;-61
2023/12/08 01:07:32;;;;;;;12.50;6.55;;;;;;;;;;5220955;28;20041;-61
2023/12/08 01:10:03;;;;;;;11.80;6.68;;;;;;;;;;5227210;28;20041;-61
2023/12/08 01:12:35;;;;;;;13.25;6.50;;;;;;;;;;5228926;28;20510;-61
2023/12/08 01:15:07;;;;;;;11.70;6.20;;;;;;;;;;5215823;28;20040;-61
2023/12/08 01:17:38;;;;;;;11.40;6.35;;;;;;;;;;5237342;28;20052;-61
2023/12/08 01:20:09;;;;;;;11.18;5.93;;;;;;;;;;5227379;28;20053;-61
2023/12/08 01:22:40;;;;;;;11.23;6.00;;;;;;;;;;5244090;28;20127;-61
2023/12/08 01:25:12;;;;;;;10.77;5.78;;;;;;;;;;5230695;28;20760;-61
2023/12/08 01:27:43;;;;;;;13.15;6.10;;;;;;;;;;5247924;28;20048;-62
2023/12/08 01:30:14;;;;;;;9.02;5.25;;;;;;;;;;5248430;28;20499;-62
2023/12/08 01:32:45;;;;;;;12.77;7.63;;;;;;;;;;5228422;28;20495;-61
2023/12/08 01:35:16;;;;;;;9.65;4.97;;;;;;;;;;5243597;28;20041;-61
2023/12/08 01:37:47;;;;;;;8.63;4.88;;;;;;;;;;5243882;28;20071;-61
2023/12/08 01:40:19;;;;;;;10.57;5.70;;;;;;;;;;5226907;28;20049;-62
2023/12/08 01:42:50;;;;;;;10.30;5.15;;;;;;;;;;5227288;28;20407;-62
2023/12/08 01:45:21;;;;;;;11.55;5.43;;;;;;;;;;5243655;28;20483;-62
2023/12/08 01:47:52;;;;;;;10.75;5.13;;;;;;;;;;5227574;28;20341;-62
2023/12/08 01:50:23;;;;;;;8.82;4.93;;;;;;;;;;5243971;28;20041;-62
2023/12/08 01:52:55;;;;;;;10.18;4.90;;;;;;;;;;5243449;28;20053;-62
2023/12/08 01:55:26;;;;;;;12.48;5.55;;;;;;;;;;5226853;28;20059;-62
2023/12/08 01:57:58;;;;;;;10.32;5.38;;;;;;;;;;5226610;28;20041;-62
2023/12/08 02:00:29;;;;;;;13.13;5.65;;;;;;;;;;5243167;28;20043;-60
2023/12/08 02:03:00;;;;;;;12.02;5.72;;;;;;;;;;5222008;28;20120;-61
2023/12/08 02:05:32;;;;;;;9.57;4.85;;;;;;;;;;5220879;28;20059;-61
2023/12/08 02:08:03;;;;;;;10.85;5.05;;;;;;;;;;5242586;28;20040;-61
2023/12/08 02:10:34;;;;;;;7.57;4.00;;;;;;;;;;5226579;28;20128;-61
2023/12/08 02:13:06;;;;;;;7.95;4.45;;;;;;;;;;5242673;28;20075;-61
2023/12/08 02:15:38;;;;;;;;;;;;;;;;;;5243752;28;20148;-61
2023/12/08 02:18:10;;;;;;;7.47;4.50;;;;;;;;;;5226968;28;20418;-61
2023/12/08 02:20:44;;;;;;;9.63;4.20;;;;;;;;;;5226900;28;20076;-62
2023/12/08 02:23:15;;;;;;;8.30;4.47;;;;;;;;;;5247473;28;21133;-61
2023/12/08 02:25:46;;;;;;;8.75;4.68;;;;;;;;;;5247382;28;20463;-62
2023/12/08 02:28:17;;;;;;;8.88;4.57;;;;;;;;;;5229023;28;20117;-61
2023/12/08 02:30:49;;;;;;;10.05;4.90;;;;;;;;;;5224224;28;20246;-61
2023/12/08 02:33:25;;;;;;;10.45;5.30;;;;;;;;;;5226572;28;20450;-61
2023/12/08 02:35:57;;;;;;;10.93;5.50;;;;;;;;;;5209694;28;20514;-61
2023/12/08 02:38:29;;;;;;;10.25;5.32;;;;;;;;;;5226546;28;20072;-61
2023/12/08 02:41:00;;;;;;;8.65;4.85;;;;;;;;;;5225936;28;20123;-61
2023/12/08 02:43:31;;;;;;;9.82;4.95;;;;;;;;;;5208941;28;20098;-61
2023/12/08 02:46:02;;;;;;;10.77;5.35;;;;;;;;;;5261164;28;20043;-61
2023/12/08 02:48:33;;;;;;;9.32;5.43;;;;;;;;;;5224305;28;20116;-61
2023/12/08 02:51:05;;;;;;;10.60;5.55;;;;;;;;;;5222582;28;20040;-61
2023/12/08 02:53:36;;;;;;;16.33;9.80;;;;;;;;;;5229787;28;20072;-61
2023/12/08 02:56:07;;;;;;;10.85;5.82;;;;;;;;;;5214005;28;20796;-61
2023/12/08 02:58:38;;;;;;;10.47;5.53;;;;;;;;;;5226171;28;20475;-61
2023/12/08 03:01:10;;;;;;;9.18;5.68;;;;;;;;;;5225301;28;20111;-61
2023/12/08 03:03:41;;;;;;;9.40;5.40;;;;;;;;;;5225750;28;20040;-62
2023/12/08 03:06:12;;;;;;;11.27;5.70;;;;;;;;;;5226010;28;20146;-62
2023/12/08 03:08:43;;;;;;;9.38;5.22;;;;;;;;;;5225952;28;20456;-61
2023/12/08 03:11:14;;;;;;;7.78;5.25;;;;;;;;;;5229194;28;20130;-60
2023/12/08 03:13:45;;;;;;;8.95;5.00;;;;;;;;;;5230789;28;20045;-61
2023/12/08 03:16:17;;;;;;;8.40;4.70;;;;;;;;;;5238271;28;20361;-61
2023/12/08 03:18:48;;;;;;;7.22;4.50;;;;;;;;;;5211500;28;20821;-61
2023/12/08 03:21:25;;;;;;;11.30;5.13;;;;;;;;;;5241873;28;20049;-61
2023/12/08 03:23:59;;;;;;;7.97;4.40;;;;;;;;;;5225468;28;20032;-61
2023/12/08 03:26:30;;;;;;;10.18;5.28;;;;;;;;;;5241057;28;20037;-61
2023/12/08 03:29:01;;;;;;;7.63;4.65;;;;;;;;;;5241821;28;20045;-61
2023/12/08 03:31:33;;;;;;;9.60;4.72;;;;;;;;;;5242009;28;20040;-62
2023/12/08 03:34:04;;;;;;;8.50;4.95;;;;;;;;;;5227417;28;20053;-62
2023/12/08 03:36:35;;;;;;;10.25;5.32;;;;;;;;;;5187716;28;20085;-62
2023/12/08 03:39:06;;;;;;;8.18;4.70;;;;;;;;;;5187774;28;20045;-62
2023/12/08 03:41:37;;;;;;;10.50;5.07;;;;;;;;;;5217728;28;20517;-61
2023/12/08 03:44:08;;;;;;;8.60;5.07;;;;;;;;;;5244965;28;20028;-61
2023/12/08 03:46:42;;;;;;;9.30;5.43;;;;;;;;;;5227023;28;20047;-61
2023/12/08 03:49:13;;;;;;;8.60;4.93;;;;;;;;;;5228814;28;20454;-62
2023/12/08 03:51:44;;;;;;;5.38;3.30;;;;;;;;;;5245315;28;20186;-61
2023/12/08 03:54:16;;;;;;;5.63;2.92;;;;;;;;;;5245159;28;20056;-61
2023/12/08 03:56:47;;;;;;;6.22;3.15;;;;;;;;;;5239736;28;20063;-60
2023/12/08 03:59:18;;;;;;;5.05;3.00;;;;;;;;;;5224645;28;20385;-60
2023/12/08 04:01:52;;;;;;;5.05;2.60;;;;;;;;;;5209552;28;20037;-63
2023/12/08 04:04:24;;;;;;;7.03;2.58;;;;;;;;;;5187380;28;20077;-63
2023/12/08 04:06:55;;;;;;;6.18;2.95;;;;;;;;;;5215528;28;20399;-63
2023/12/08 04:09:26;;;;;;;5.03;2.95;;;;;;;;;;5228816;28;20123;-62
2023/12/08 04:11:57;;;;;;;4.88;2.80;;;;;;;;;;5224406;28;20048;-62
2023/12/08 04:14:29;;;;;;;6.07;2.88;;;;;;;;;;5207759;28;20045;-60
2023/12/08 04:17:00;;;;;;;7.65;2.88;;;;;;;;;;5218276;28;20044;-59
2023/12/08 04:19:31;;;;;;;5.50;2.78;;;;;;;;;;5187402;28;20041;-59
2023/12/08 04:22:02;;;;;;;4.30;2.38;;;;;;;;;;5203795;28;20095;-59
2023/12/08 04:24:33;;;;;;;7.63;3.10;;;;;;;;;;5203927;28;20044;-59
2023/12/08 04:27:05;;;;;;;5.57;3.10;;;;;;;;;;5217870;28;20029;-60
2023/12/08 04:29:36;;;;;;;7.53;3.10;;;;;;;;;;5228295;28;20037;-60
2023/12/08 04:32:07;;;;;;;8.00;3.17;;;;;;;;;;5244424;28;20119;-60
2023/12/08 04:34:38;;;;;;;6.55;3.08;;;;;;;;;;5226137;28;20036;-60
2023/12/08 04:37:09;;;;;;;5.30;3.00;;;;;;;;;;5244433;28;20041;-60
2023/12/08 04:39:40;;;;;;;5.47;2.78;;;;;;;;;;5228333;28;20058;-60
2023/12/08 04:42:12;;;;;;;5.95;2.45;;;;;;;;;;5243056;28;20040;-59
2023/12/08 04:44:43;;;;;;;6.20;2.47;;;;;;;;;;5223792;28;20071;-60
2023/12/08 04:47:14;;;;;;;5.22;2.65;;;;;;;;;;5224256;28;20090;-59
2023/12/08 04:49:45;;;;;;;5.68;2.80;;;;;;;;;;5241013;28;20102;-60
2023/12/08 04:52:17;;;;;;;8.45;3.25;;;;;;;;;;5224324;28;20064;-59
2023/12/08 04:54:48;;;;;;;6.15;2.55;;;;;;;;;;5223804;28;20084;-59
2023/12/08 04:57:19;;;;;;;5.75;2.60;;;;;;;;;;5230197;28;20420;-60
2023/12/08 04:59:51;;;;;;;5.63;2.05;;;;;;;;;;5244897;28;20479;-59
2023/12/08 05:02:22;;;;;;;4.75;2.58;;;;;;;;;;5244614;28;20450;-60
2023/12/08 05:04:53;;;;;;;5.28;1.88;;;;;;;;;;5244864;28;20049;-60
2023/12/08 05:07:25;;;;;;;4.38;1.65;;;;;;;;;;5214163;28;20041;-60
2023/12/08 05:09:56;;;;;;;5.65;1.50;;;;;;;;;;5230456;28;20442;-60
2023/12/08 05:12:27;;;;;;;6.05;1.83;;;;;;;;;;5223429;28;20080;-60
2023/12/08 05:14:58;;;;;;;6.32;1.48;;;;;;;;;;5223705;28;20467;-60
2023/12/08 05:17:29;;;;;;;6.13;1.73;;;;;;;;;;5243554;28;20119;-60
2023/12/08 05:20:03;;;;;;;5.03;1.55;;;;;;;;;;5227482;28;20040;-60
2023/12/08 05:22:34;;;;;;;4.38;1.58;;;;;;;;;;5214215;28;20107;-59
2023/12/08 05:25:05;;;;;;;7.27;1.93;;;;;;;;;;5242833;28;20085;-62
2023/12/08 05:27:37;;;;;;;11.10;1.73;;;;;;;;;;5243898;28;20803;-62
2023/12/08 05:30:08;;;;;;;7.88;2.08;;;;;;;;;;5226120;28;20413;-59
2023/12/08 05:32:39;;;;;;;2.97;1.70;;;;;;;;;;5215843;28;20494;-59
2023/12/08 05:35:10;;;;;;;9.18;1.60;;;;;;;;;;5240062;28;20124;-59
2023/12/08 05:37:41;;;;;;;4.80;1.10;;;;;;;;;;5223707;28;20119;-60
2023/12/08 05:40:13;;;;;;;4.63;1.10;;;;;;;;;;5239756;28;20045;-59
2023/12/08 05:42:44;;;;;;;6.30;1.87;;;;;;;;;;5240240;28;20077;-59
2023/12/08 05:45:15;;;;;;;5.35;0.85;;;;;;;;;;5224453;28;20329;-59
2023/12/08 05:47:46;;;;;;;6.53;1.30;;;;;;;;;;5240847;28;20040;-59
2023/12/08 05:50:17;;;;;;;4.35;0.70;;;;;;;;;;5247639;28;20044;-59
2023/12/08 05:52:48;;;;;;;5.25;1.42;;;;;;;;;;5248106;28;20044;-59
2023/12/08 05:55:20;;;;;;;6.88;1.23;;;;;;;;;;5246407;28;20427;-59
2023/12/08 05:57:52;;;;;;;6.90;1.10;;;;;;;;;;5247717;28;20045;-59
2023/12/08 06:00:23;;;;;;;7.82;1.30;;;;;;;;;;5230960;28;20040;-59
2023/12/08 06:02:54;;;;;;;4.97;0.90;;;;;;;;;;5230963;28;20602;-61
2023/12/08 06:05:25;;;;;;;4.97;1.27;;;;;;;;;;5236028;28;20053;-60
2023/12/08 06:07:56;;;;;;;10.55;1.95;;;;;;;;;;5243494;28;20044;-60
2023/12/08 06:10:27;;;;;;;6.53;1.35;;;;;;;;;;5210136;28;20041;-60
2023/12/08 06:12:58;;;;;;;4.60;0.85;;;;;;;;;;5210145;28;20072;-60
2023/12/08 06:15:30;;;;;;;2.28;0.82;;;;;;;;;;5237124;28;20079;-58
2023/12/08 06:18:01;;;;;;;7.80;1.27;;;;;;;;;;5231228;28;20510;-59
2023/12/08 06:20:32;;;;;;;8.38;1.67;;;;;;;;;;5230814;28;20043;-60
2023/12/08 06:23:03;;;;;;;5.15;1.02;;;;;;;;;;5226792;28;20041;-60
2023/12/08 06:25:34;;;;;;;4.82;1.13;;;;;;;;;;5243123;28;20045;-61
2023/12/08 06:28:05;;;;;;;6.80;1.17;;;;;;;;;;5244656;28;20044;-61
2023/12/08 06:30:36;;;;;;;11.30;1.60;;;;;;;;;;5235852;28;20068;-61
2023/12/08 06:33:08;;;;;;;7.97;0.93;;;;;;;;;;5247424;28;20250;-61
2023/12/08 06:35:39;;;;;;;9.52;1.30;;;;;;;;;;5246920;28;20108;-61
2023/12/08 06:38:10;;;;;;;4.60;0.90;;;;;;;;;;5242698;28;20472;-61
2023/12/08 06:40:41;;;;;;;5.10;1.17;;;;;;;;;;5243103;28;20045;-63
2023/12/08 06:43:13;;;;;;;11.05;0.98;;;;;;;;;;5225887;28;20410;-62
2023/12/08 06:45:44;;;;;;;5.78;0.88;;;;;;;;;;5237015;28;20033;-62
2023/12/08 06:48:15;;;;;;;2.63;0.80;;;;;;;;;;5226443;28;20431;-61
2023/12/08 06:50:46;;;;;;;6.20;1.15;;;;;;;;;;5242588;28;20037;-61
2023/12/08 06:53:17;;;;;;;6.60;0.95;;;;;;;;;;5242664;28;20068;-62
2023/12/08 06:55:48;;;;;;;7.95;1.00;;;;;;;;;;5225757;28;20053;-60
2023/12/08 06:58:20;;;;;;;7.78;1.35;;;;;;;;;;5226141;28;20483;-61
2023/12/08 07:00:51;;;;;;;6.60;1.10;;;;;;;;;;5226378;28;20041;-61
2023/12/08 07:03:22;;;;;;;5.75;1.48;;;;;;;;;;5242811;28;20124;-61
2023/12/08 07:05:53;;;;;;;5.50;1.00;;;;;;;;;;5242220;28;20495;-62
2023/12/08 07:08:24;;;;;;;4.35;0.68;;;;;;;;;;5225563;28;20084;-63
2023/12/08 07:10:55;;;;;;;6.55;1.15;;;;;;;;;;5227474;28;20040;-61
2023/12/08 07:13:26;;;;;;;5.60;0.90;;;;;;;;;;5229636;28;20131;-62
2023/12/08 07:15:57;;;;;;;6.55;1.10;;;;;;;;;;5215122;28;20045;-61
2023/12/08 07:18:29;;;;;;;3.88;0.70;;;;;;;;;;5242353;28;20055;-60
2023/12/08 07:21:00;;;;;;;2.65;0.55;;;;;;;;;;5225592;28;20051;-61
2023/12/08 07:23:31;;;;;;;6.68;1.00;;;;;;;;;;5225415;28;20048;-61
2023/12/08 07:26:03;;;;;;;7.25;0.55;;;;;;;;;;5241948;28;20033;-61
2023/12/08 07:28:34;;;;;;;4.90;0.90;;;;;;;;;;5225530;28;20110;-61
2023/12/08 07:31:05;;;;;;;6.13;1.25;;;;;;;;;;5225249;28;20040;-61
2023/12/08 07:33:37;;;;;;;4.00;0.40;;;;;;;;;;5225985;28;20055;-61
2023/12/08 07:36:08;;;;;;;5.22;0.60;;;;;;;;;;5225289;28;20044;-61
2023/12/08 07:38:39;;;;;;;6.93;0.60;;;;;;;;;;5224957;28;20056;-61
2023/12/08 07:41:10;;;;;;;2.45;0.73;;;;;;;;;;5225651;28;20045;-61
2023/12/08 07:43:41;;;;;;;2.95;0.30;;;;;;;;;;5241291;28;20059;-62
2023/12/08 07:46:12;;;;;;;4.13;0.93;;;;;;;;;;5241604;28;20079;-61
2023/12/08 07:48:43;;;;;;;4.88;0.80;;;;;;;;;;5225905;28;20083;-61
2023/12/08 07:51:15;;;;;;;3.05;0.60;;;;;;;;;;5241662;28;20123;-63
2023/12/08 07:53:46;;;;;;;2.88;0.50;;;;;;;;;;5224952;28;20063;-64
2023/12/08 07:56:17;;;;;;;3.83;0.65;;;;;;;;;;5240724;28;20048;-61
2023/12/08 07:58:48;;;;;;;3.53;0.70;;;;;;;;;;5224788;28;20052;-61
2023/12/08 08:01:19;;;;;;;3.45;0.50;;;;;;;;;;5224558;28;20049;-61
2023/12/08 08:03:51;;;;;;;2.75;0.40;;;;;;;;;;5225454;28;20538;-60
2023/12/08 08:06:24;;;;;;;4.60;0.40;;;;;;;;;;5241285;28;20044;-61
2023/12/08 08:08:56;;;;;;;3.75;0.40;;;;;;;;;;5240896;28;20037;-62
2023/12/08 08:11:27;;;;;;;2.90;0.40;;;;;;;;;;5207293;28;20498;-61
2023/12/08 08:13:58;;;;;;;1.83;0.50;;;;;;;;;;5224589;28;20048;-61
2023/12/08 08:16:29;;;;;;;2.97;0.53;;;;;;;;;;5240625;28;20158;-61
2023/12/08 08:19:00;;;;;;;3.95;0.95;;;;;;;;;;5223950;28;20036;-58
2023/12/08 08:21:31;;;;;;;3.55;0.68;;;;;;;;;;5239776;28;20049;-62
2023/12/08 08:24:03;;;;;;;2.03;0.20;;;;;;;;;;5224015;28;20064;-61
2023/12/08 08:26:34;;;;;;;1.65;0.20;;;;;;;;;;5223512;28;20037;-63
2023/12/08 08:29:05;;;;;;;3.00;0.55;;;;;;;;;;5223840;28;20044;-64
2023/12/08 08:31:36;;;;;;;3.10;0.52;;;;;;;;;;5233357;28;20068;-62
2023/12/08 08:34:07;;;;;;;1.90;0.63;;;;;;;;;;5240336;28;20132;-62
2023/12/08 08:36:38;;;;;;;3.13;0.52;;;;;;;;;;5240543;28;20547;-62
2023/12/08 08:39:10;;;;;;;4.07;0.65;;;;;;;;;;5223491;28;20048;-62
2023/12/08 08:41:45;;;;;;;3.83;0.50;;;;;;;;;;5256484;28;20052;-62
2023/12/08 08:44:16;;;;;;;3.80;0.60;;;;;;;;;;5239507;28;20037;-60
2023/12/08 08:46:47;;;;;;;3.15;0.50;;;;;;;;;;5237002;28;20479;-62
2023/12/08 08:49:18;;;;;;;3.38;0.40;;;;;;;;;;5244723;28;20082;-63
2023/12/08 08:51:49;;;;;;;5.97;0.90;;;;;;;;;;5233969;28;20155;-61
2023/12/08 08:54:21;;;;;;;1.75;0.50;;;;;;;;;;5224233;28;20555;-63
2023/12/08 08:56:52;;;;;;;7.30;0.90;;;;;;;;;;5242320;28;20395;-61
2023/12/08 08:59:24;;;;;;;6.60;0.70;;;;;;;;;;5213449;28;20618;-61
2023/12/08 09:01:55;;;;;;;5.55;1.65;;;;;;;;;;5240054;28;20128;-60
2023/12/08 09:04:26;;;;;;;2.00;0.75;;;;;;;;;;5226232;28;20464;-60
2023/12/08 09:06:57;;;;;;;3.15;1.10;;;;;;;;;;5235045;28;20119;-59
2023/12/08 09:09:28;;;;;;;2.05;0.65;;;;;;;;;;5230388;28;20040;-61
2023/12/08 09:11:59;;;;;;;4.55;1.13;;;;;;;;;;5224348;28;20044;-59
2023/12/08 09:14:33;;;;;;;2.80;0.60;;;;;;;;;;5237122;28;20114;-62
2023/12/08 09:17:05;;;;;;;2.90;0.70;;;;;;;;;;5243103;28;20765;-59
2023/12/08 09:19:37;;;;;;;2.88;0.60;;;;;;;;;;5229400;28;20037;-60
2023/12/08 09:22:09;;;;;;;2.55;0.73;;;;;;;;;;5223580;28;20053;-59
2023/12/08 09:24:40;;;;;;;3.13;0.32;;;;;;;;;;5226955;28;20102;-60
2023/12/08 09:27:11;;;;;;;5.35;1.30;;;;;;;;;;5244295;28;20416;-59
2023/12/08 09:29:42;;;;;;;4.35;0.85;;;;;;;;;;5227308;28;20077;-61
2023/12/08 09:32:13;;;;;;;3.58;0.73;;;;;;;;;;5216781;28;20036;-60
2023/12/08 09:34:44;;;;;;;2.40;0.38;;;;;;;;;;5248519;28;20499;-60
2023/12/08 09:37:15;;;;;;;7.68;0.65;;;;;;;;;;5221483;28;20076;-59
2023/12/08 09:39:47;;;;;;;3.00;0.60;;;;;;;;;;5243752;28;20455;-59
2023/12/08 09:42:24;;;;;;;7.33;0.73;;;;;;;;;;5228050;28;20380;-60
2023/12/08 09:44:55;;;;;;;4.82;1.17;;;;;;;;;;5243421;28;20319;-60
2023/12/08 09:47:28;;;;;;;2.10;0.67;;;;;;;;;;5224090;28;20178;-60
2023/12/08 09:50:01;;;;;;;0.77;0.43;;;;;;;;;;5227030;28;20285;-62
2023/12/08 09:52:34;;;;;;;1.85;0.45;;;;;;;;;;5228507;28;20052;-60
2023/12/08 09:55:05;;;;;;;3.22;0.60;;;;;;;;;;5226855;28;20032;-60
2023/12/08 09:57:38;;;;;;;3.38;0.52;;;;;;;;;;5226465;28;20044;-61
2023/12/08 10:00:13;;;;;;;2.05;0.20;;;;;;;;;;5230714;28;20051;-59
2023/12/08 10:02:44;;;;;;;4.45;0.80;;;;;;;;;;5231311;28;20534;-60
2023/12/08 10:05:16;;;;;;;4.33;0.60;;;;;;;;;;5230490;28;20484;-60
2023/12/08 10:07:49;;;;;;;4.63;0.53;;;;;;;;;;5244394;28;20037;-60
2023/12/08 10:10:21;;;;;;;4.40;0.85;;;;;;;;;;5226187;28;20278;-60
2023/12/08 10:12:52;;;;;;;;;;;;;;;;;;5228848;28;20522;-59
2023/12/08 10:15:23;;;;;;;3.55;0.50;;;;;;;;;;5246886;28;19916;-60
2023/12/08 10:17:55;;;;;;;3.73;0.77;;;;;;;;;;5229731;28;20144;-60
2023/12/08 10:20:26;;;;;;;4.43;1.20;;;;;;;;;;5246004;28;20131;-61
2023/12/08 10:22:57;;;;;;;3.40;0.60;;;;;;;;;;5228132;28;20048;-59
2023/12/08 10:25:28;;;;;;;2.35;0.57;;;;;;;;;;5226397;28;20095;-59
2023/12/08 10:28:00;;;;;;;4.10;0.70;;;;;;;;;;5226060;28;20045;-59
2023/12/08 10:30:31;;;;;;;3.13;0.60;;;;;;;;;;5242937;28;20131;-62
2023/12/08 10:33:02;;;;;;;3.47;0.80;;;;;;;;;;5242791;28;20455;-59
2023/12/08 10:35:33;;;;;;;4.10;0.57;;;;;;;;;;5242155;28;20137;-59
2023/12/08 10:38:04;;;;;;;3.73;0.43;;;;;;;;;;5237112;28;20044;-59
2023/12/08 10:40:35;;;;;;;2.97;0.67;;;;;;;;;;5238769;28;20101;-58
2023/12/08 10:43:07;;;;;;;6.83;1.20;;;;;;;;;;5236988;28;20036;-58
2023/12/08 10:45:41;;;;;;;;;;;;;;;;;;5234837;28;20392;-63
2023/12/08 10:48:12;;;;;;;2.33;0.40;;;;;;;;;;5258009;28;20011;-61
2023/12/08 10:50:45;;;;;;;2.33;0.60;;;;;;;;;;5241457;28;20414;-59
2023/12/08 10:53:18;;;;;;;2.75;0.45;;;;;;;;;;5174359;28;20045;-59
2023/12/08 10:56:09;;;;;;;3.65;0.57;;;;;;;;;;5201979;28;20100;-61
2023/12/08 10:58:42;;;;;;;2.08;0.50;;;;;;;;;;5200905;28;20049;-60
2023/12/08 11:43:26;;;;;;;4.55;0.80;;;;;;;;;;5177078;23;20089;-61
2023/12/08 11:45:57;;;;;;;5.18;1.23;;;;;;;;;;5160948;28;20046;-59
2023/12/08 11:48:28;;;;;;;2.17;0.47;;;;;;;;;;5174848;28;20039;-60
2023/12/08 11:51:01;;;;;;;1.60;0.47;;;;;;;;;;5146996;28;20096;-61
2023/12/08 11:53:48;;;;;;;2.63;0.60;;;;;;;;;;5166977;28;20042;-62
2023/12/08 11:56:41;;;;;;;4.15;1.05;;;;;;;;;;5163284;28;20120;-61
2023/12/08 11:59:24;;;;;;;2.50;0.55;;;;;;;;;;5145342;28;20038;-60
2023/12/08 12:01:57;;;;;;;2.65;0.40;;;;;;;;;;5144337;28;20048;-59
2023/12/08 12:04:28;;;;;;;3.88;0.57;;;;;;;;;;5144293;28;20044;-60
2023/12/08 12:06:59;;;;;;;0.93;0.55;;;;;;;;;;5143991;28;20042;-60
2023/12/08 12:09:32;;;;;;;4.75;1.02;;;;;;;;;;5160432;28;20132;-60
2023/12/08 12:12:05;;;;;;;2.47;0.60;;;;;;;;;;5169194;28;20041;-59
2023/12/08 12:14:37;;;;;;;5.22;1.13;;;;;;;;;;5149673;28;20108;-60
2023/12/08 12:17:10;;;;;;;2.85;0.38;;;;;;;;;;5146098;28;20507;-60
2023/12/08 12:19:41;;;;;;;4.05;0.90;;;;;;;;;;5161851;28;20615;-60
2023/12/08 12:22:12;;;;;;;2.75;0.60;;;;;;;;;;5160611;28;20042;-60
2023/12/08 12:24:44;;;;;;;2.27;0.33;;;;;;;;;;5145838;28;20390;-61
2023/12/08 12:27:15;;;;;;;2.78;0.55;;;;;;;;;;5160238;28;20292;-60
2023/12/08 12:29:46;;;;;;;2.70;0.63;;;;;;;;;;5146323;28;20045;-62
2023/12/08 12:32:17;;;;;;;4.47;0.77;;;;;;;;;;5159709;28;20096;-61
2023/12/08 12:34:48;;;;;;;3.17;0.60;;;;;;;;;;5143665;28;20038;-59
2023/12/08 12:37:21;;;;;;;2.65;0.70;;;;;;;;;;5146198;28;20042;-60
2023/12/08 12:39:53;;;;;;;5.60;0.88;;;;;;;;;;5161015;28;20049;-58
2023/12/08 12:42:24;;;;;;;1.48;0.40;;;;;;;;;;5161333;28;20042;-59
2023/12/08 12:44:55;;;;;;;3.53;0.77;;;;;;;;;;5162049;28;20034;-59
2023/12/08 12:47:26;;;;;;;3.22;0.55;;;;;;;;;;5168839;28;20519;-59
2023/12/08 12:50:04;;;;;;;4.00;0.85;;;;;;;;;;5158072;28;20050;-59
2023/12/08 12:52:39;;;;;;;2.70;0.60;;;;;;;;;;5162186;28;20045;-59
2023/12/08 12:55:23;;;;;;;1.98;0.60;;;;;;;;;;5172839;28;20049;-60
2023/12/08 12:57:54;;;;;;;3.47;0.50;;;;;;;;;;5175923;28;20374;-58
2023/12/08 13:00:37;;;;;;;5.03;0.77;;;;;;;;;;5147562;28;20038;-60
2023/12/08 13:03:09;;;;;;;4.00;0.68;;;;;;;;;;5170339;28;20049;-60
2023/12/08 13:05:45;;;;;;;2.08;0.77;;;;;;;;;;5147638;28;20474;-60
2023/12/08 13:08:17;;;;;;;4.22;0.93;;;;;;;;;;5182412;28;20116;-60
2023/12/08 13:10:48;;;;;;;2.30;1.15;;;;;;;;;;5165238;28;20089;-59
2023/12/08 13:13:20;;;;;;;2.47;0.50;;;;;;;;;;5164051;28;20092;-59
2023/12/08 13:15:51;;;;;;;2.83;1.00;;;;;;;;;;5183788;28;20069;-61
2023/12/08 13:18:22;;;;;;;2.72;1.25;;;;;;;;;;5164612;28;20109;-60
2023/12/08 13:20:53;;;;;;;3.22;0.65;;;;;;;;;;5149276;28;20152;-60
2023/12/08 13:23:26;;;;;;;3.45;0.60;;;;;;;;;;5166235;28;20049;-60
2023/12/08 13:25:57;;;;;;;1.20;0.40;;;;;;;;;;5150156;28;20582;-60
2023/12/08 13:28:28;;;;;;;2.10;0.60;;;;;;;;;;5166811;28;20053;-61
2023/12/08 13:30:59;;;;;;;1.88;0.38;;;;;;;;;;5148503;28;20038;-60
2023/12/08 13:33:30;;;;;;;3.53;0.70;;;;;;;;;;5182412;28;20057;-60
2023/12/08 13:36:01;;;;;;;2.08;0.50;;;;;;;;;;5163201;28;20059;-60
2023/12/08 13:38:33;;;;;;;2.75;0.40;;;;;;;;;;5149786;28;20042;-59
2023/12/08 13:41:04;;;;;;;3.90;0.47;;;;;;;;;;5180972;28;20038;-60
2023/12/08 13:43:35;;;;;;;2.85;0.50;;;;;;;;;;5150219;28;20512;-59
2023/12/08 13:46:06;;;;;;;2.88;0.50;;;;;;;;;;5148811;28;20034;-59
2023/12/08 13:48:37;;;;;;;3.45;0.68;;;;;;;;;;5168387;28;20566;-58
2023/12/08 13:51:08;;;;;;;2.40;0.50;;;;;;;;;;5156852;28;20045;-59
2023/12/08 13:53:39;;;;;;;3.05;0.73;;;;;;;;;;5170950;28;20038;-59
2023/12/08 13:56:10;;;;;;;1.67;0.60;;;;;;;;;;5164114;28;20046;-59
2023/12/08 13:58:42;;;;;;;5.53;0.40;;;;;;;;;;5149664;28;20038;-57
2023/12/08 14:01:14;;;;;;;2.05;0.55;;;;;;;;;;5163939;28;20054;-58
2023/12/08 14:03:45;;;;;;;2.97;0.52;;;;;;;;;;5165366;28;20057;-57
2023/12/08 14:06:16;;;;;;;3.72;0.70;;;;;;;;;;5181190;28;20438;-57
2023/12/08 14:08:47;;;;;;;1.85;0.45;;;;;;;;;;5161682;23;20046;-63
2023/12/08 14:11:19;;;;;;;2.13;0.70;;;;;;;;;;5110893;28;20051;-57
2023/12/08 14:13:50;;;;;;;1.80;0.60;;;;;;;;;;5147570;28;20081;-58
2023/12/08 14:16:21;;;;;;;3.45;0.70;;;;;;;;;;5144230;28;20108;-56
2023/12/08 14:18:53;;;;;;;6.43;1.03;;;;;;;;;;5145214;28;20482;-58
2023/12/08 14:21:24;;;;;;;2.40;0.53;;;;;;;;;;5143813;28;20698;-57
2023/12/08 14:23:55;;;;;;;2.63;0.60;;;;;;;;;;5123900;28;20160;-58
2023/12/08 14:26:26;;;;;;;5.05;0.40;;;;;;;;;;5151422;28;20039;-58
2023/12/08 14:28:57;;;;;;;3.78;0.85;;;;;;;;;;5143899;28;20088;-57
2023/12/08 14:31:28;;;;;;;4.47;0.68;;;;;;;;;;5143699;28;20062;-58
2023/12/08 14:33:59;;;;;;;1.27;0.43;;;;;;;;;;5128258;28;20042;-58
2023/12/08 14:36:30;;;;;;;2.95;0.50;;;;;;;;;;5142989;28;20053;-56
2023/12/08 14:39:03;;;;;;;5.25;1.23;;;;;;;;;;5143645;28;20050;-57
2023/12/08 14:41:34;;;;;;;2.38;0.60;;;;;;;;;;5159189;28;20038;-57
2023/12/08 14:44:05;;;;;;;0.93;0.40;;;;;;;;;;5156621;28;20111;-57
2023/12/08 14:46:36;;;;;;;1.63;0.60;;;;;;;;;;5143252;28;20062;-56
2023/12/08 14:49:08;;;;;;;2.55;0.50;;;;;;;;;;5144124;28;20521;-57
2023/12/08 14:51:39;;;;;;;4.10;1.17;;;;;;;;;;5126650;28;20078;-57
2023/12/08 14:54:10;;;;;;;2.83;0.70;;;;;;;;;;5143768;28;20043;-58
2023/12/08 14:56:42;;;;;;;2.15;0.40;;;;;;;;;;5143548;28;20105;-59
2023/12/08 14:59:13;;;;;;;1.40;0.35;;;;;;;;;;5109233;29;20039;-59
2023/12/08 15:01:44;;;;;;;1.90;0.80;;;;;;;;;;5138430;28;20483;-59
2023/12/08 15:04:15;;;;;;;3.58;0.77;;;;;;;;;;5105984;29;20086;-57
2023/12/08 15:06:46;;;;;;;2.05;0.95;;;;;;;;;;5127230;28;20452;-58
2023/12/08 15:09:17;;;;;;;6.07;1.00;;;;;;;;;;5108715;29;20047;-59
2023/12/08 15:11:49;;;;;;;3.20;0.70;;;;;;;;;;5133543;28;20101;-60
2023/12/08 15:14:20;;;;;;;3.03;0.88;;;;;;;;;;5108069;29;20504;-59
2023/12/08 15:16:51;;;;;;;4.93;0.80;;;;;;;;;;5125912;28;20162;-58
2023/12/08 15:19:22;;;;;;;3.38;0.60;;;;;;;;;;5109456;28;20047;-58
2023/12/08 15:21:59;;;;;;;3.88;0.80;;;;;;;;;;5132357;28;20062;-58
2023/12/08 15:24:30;;;;;;;4.53;0.43;;;;;;;;;;5107439;29;20042;-57
2023/12/08 15:27:01;;;;;;;3.85;0.52;;;;;;;;;;5139213;28;20530;-57
2023/12/08 15:29:32;;;;;;;3.08;0.60;;;;;;;;;;5126991;28;20142;-57
2023/12/08 15:32:03;;;;;;;4.93;0.50;;;;;;;;;;5122682;28;20051;-58
2023/12/08 15:34:35;;;;;;;3.73;0.60;;;;;;;;;;5122687;29;20081;-59
2023/12/08 15:37:06;;;;;;;3.47;0.90;;;;;;;;;;5136882;28;20047;-59
2023/12/08 15:39:37;;;;;;;4.53;0.63;;;;;;;;;;5138795;28;20074;-59
2023/12/08 15:42:08;;;;;;;5.88;0.65;;;;;;;;;;5114283;29;20474;-58
2023/12/08 15:44:40;;;;;;;3.13;0.60;;;;;;;;;;5138327;28;20046;-58
2023/12/08 15:47:12;;;;;;;3.38;0.73;;;;;;;;;;5122702;28;20050;-58
2023/12/08 15:49:43;;;;;;;4.63;0.93;;;;;;;;;;5122450;28;20039;-57